Time;durP1;ratioP1;P1;durP2;ratioP2;P2;SDS_P1;SDS_P2;PMS_P1;PMS_P2;Temp;Humidity;BMP_temperature;BMP_pressure;BME280_temperature;BME280_humidity;BME280_pressure;Samples;Min_cycle;Max_cycle;Signal;HPM_P1;HPM_P2
2022/08/17 00:01:13;;;;;;;5.90;2.83;;;;;;;;;;4419420;32;20634;-85
2022/08/17 00:03:44;;;;;;;4.62;3.35;;;;;;;;;;4419676;32;20543;-86
2022/08/17 00:06:14;;;;;;;5.62;3.10;;;;;;;;;;4419467;32;20688;-88
2022/08/17 00:08:53;;;;;;;9.27;3.25;;;;;;;;;;4419406;32;20598;-87
2022/08/17 00:11:22;;;;;;;8.98;3.37;;;;;;;;;;4419871;32;20577;-87
2022/08/17 00:13:51;;;;;;;8.27;3.28;;;;;;;;;;4419372;32;20667;-86
2022/08/17 00:16:25;;;;;;;10.15;3.55;;;;;;;;;;4405789;32;20694;-88
2022/08/17 00:18:51;;;;;;;9.82;3.37;;;;;;;;;;4421964;32;20618;-88
2022/08/17 00:21:19;;;;;;;14.45;3.92;;;;;;;;;;4423032;32;20557;-87
2022/08/17 00:23:45;;;;;;;10.30;2.70;;;;;;;;;;4423401;32;20621;-88
2022/08/17 00:26:12;;;;;;;10.68;3.40;;;;;;;;;;4422443;32;20616;-87
2022/08/17 00:28:39;;;;;;;7.35;3.45;;;;;;;;;;4420828;32;20523;-88
2022/08/17 00:31:07;;;;;;;5.90;3.35;;;;;;;;;;4421004;32;20626;-86
2022/08/17 00:33:34;;;;;;;9.70;4.10;;;;;;;;;;4422009;32;20702;-86
2022/08/17 00:36:01;;;;;;;6.80;2.92;;;;;;;;;;4421098;32;20673;-87
2022/08/17 00:38:28;;;;;;;9.80;4.12;;;;;;;;;;4408185;32;20543;-86
2022/08/17 00:40:55;;;;;;;4.50;2.92;;;;;;;;;;4422184;32;20590;-87
2022/08/17 00:43:37;;;;;;;4.28;3.10;;;;;;;;;;4420709;32;20542;-87
2022/08/17 00:46:10;;;;;;;8.52;3.30;;;;;;;;;;4422127;32;20614;-87
2022/08/17 00:48:36;;;;;;;8.35;3.60;;;;;;;;;;4422030;32;20302;-88
2022/08/17 00:51:12;;;;;;;7.82;3.10;;;;;;;;;;4422519;32;20582;-87
2022/08/17 00:53:43;;;;;;;4.65;3.40;;;;;;;;;;4421755;32;20579;-87
2022/08/17 00:56:15;;;;;;;8.45;3.70;;;;;;;;;;4420718;32;20653;-87
2022/08/17 00:58:42;;;;;;;10.50;3.30;;;;;;;;;;4421516;32;20685;-87
2022/08/17 01:01:09;;;;;;;12.00;3.47;;;;;;;;;;4421844;32;20503;-87
2022/08/17 01:03:37;;;;;;;6.30;3.25;;;;;;;;;;4421663;32;20718;-87
2022/08/17 01:06:05;;;;;;;7.95;3.78;;;;;;;;;;4420663;32;20623;-87
2022/08/17 01:08:31;;;;;;;12.95;3.50;;;;;;;;;;4421885;32;20614;-88
2022/08/17 01:11:00;;;;;;;10.48;3.45;;;;;;;;;;4424548;32;20591;-87
2022/08/17 01:13:31;;;;;;;7.90;3.97;;;;;;;;;;4423011;32;20634;-88
2022/08/17 01:16:20;;;;;;;10.13;4.60;;;;;;;;;;4422315;32;20983;-88
2022/08/17 01:18:50;;;;;;;18.98;4.35;;;;;;;;;;4422220;32;20603;-86
2022/08/17 01:21:54;;;;;;;5.62;3.80;;;;;;;;;;4422837;32;20624;-87
2022/08/17 01:24:23;;;;;;;7.93;4.82;;;;;;;;;;4404135;32;20786;-87
2022/08/17 01:26:51;;;;;;;14.25;5.18;;;;;;;;;;4422073;32;20662;-87
2022/08/17 01:29:23;;;;;;;9.32;5.45;;;;;;;;;;4419687;32;20673;-87
2022/08/17 01:31:55;;;;;;;6.03;4.90;;;;;;;;;;4421559;32;20642;-87
2022/08/17 01:34:23;;;;;;;9.10;4.62;;;;;;;;;;4421548;32;20705;-86
2022/08/17 01:36:55;;;;;;;8.55;3.62;;;;;;;;;;4420727;32;20629;-86
2022/08/17 01:39:59;;;;;;;10.93;4.35;;;;;;;;;;4421218;32;20645;-86
2022/08/17 01:42:49;;;;;;;7.40;4.03;;;;;;;;;;4374029;32;20615;-88
2022/08/17 01:45:25;;;;;;;11.73;3.47;;;;;;;;;;4420721;32;20600;-88
2022/08/17 01:47:52;;;;;;;8.75;3.60;;;;;;;;;;4420308;32;20639;-87
2022/08/17 01:50:25;;;;;;;8.63;3.28;;;;;;;;;;4419715;32;20600;-88
2022/08/17 01:52:57;;;;;;;9.20;3.47;;;;;;;;;;4421085;32;20592;-87
2022/08/17 01:55:30;;;;;;;12.85;4.55;;;;;;;;;;4419812;32;20579;-87
2022/08/17 01:57:56;;;;;;;12.17;3.90;;;;;;;;;;4418543;32;38784;-87
2022/08/17 02:00:22;;;;;;;8.27;4.18;;;;;;;;;;4407031;32;20228;-87
2022/08/17 02:02:48;;;;;;;8.23;2.90;;;;;;;;;;4419691;32;20554;-88
2022/08/17 02:05:14;;;;;;;9.48;3.65;;;;;;;;;;4421125;32;20250;-88
2022/08/17 02:07:40;;;;;;;6.60;3.58;;;;;;;;;;4421084;32;20476;-87
2022/08/17 02:10:10;;;;;;;4.85;3.03;;;;;;;;;;4420844;32;20653;-89
2022/08/17 02:12:36;;;;;;;14.82;4.82;;;;;;;;;;4420928;32;20574;-87
2022/08/17 02:15:08;;;;;;;6.82;4.25;;;;;;;;;;4420920;32;20520;-86
2022/08/17 02:17:34;;;;;;;6.70;4.05;;;;;;;;;;4420574;32;20680;-86
2022/08/17 02:20:00;;;;;;;9.82;4.53;;;;;;;;;;4420419;32;20716;-87
2022/08/17 02:22:27;;;;;;;10.18;4.12;;;;;;;;;;4420685;32;20279;-87
2022/08/17 02:24:54;;;;;;;10.18;3.87;;;;;;;;;;4420857;32;20590;-87
2022/08/17 02:27:20;;;;;;;7.22;3.50;;;;;;;;;;4420587;32;20546;-88
2022/08/17 02:29:46;;;;;;;8.32;3.92;;;;;;;;;;4420544;32;20245;-88
2022/08/17 02:32:21;;;;;;;8.18;3.85;;;;;;;;;;4420469;32;20189;-86
2022/08/17 02:34:47;;;;;;;18.10;3.80;;;;;;;;;;4420573;32;20521;-87
2022/08/17 02:37:16;;;;;;;9.25;3.90;;;;;;;;;;4419214;32;20722;-87
2022/08/17 02:39:44;;;;;;;8.05;3.53;;;;;;;;;;4420255;32;20597;-86
2022/08/17 02:42:12;;;;;;;7.50;3.83;;;;;;;;;;4420316;32;20689;-85
2022/08/17 02:44:38;;;;;;;10.95;4.60;;;;;;;;;;4420286;32;20534;-88
2022/08/17 02:47:04;;;;;;;10.73;3.90;;;;;;;;;;4420215;32;20616;-87
2022/08/17 02:49:30;;;;;;;4.85;3.20;;;;;;;;;;4420288;32;20558;-87
2022/08/17 02:51:57;;;;;;;14.18;4.18;;;;;;;;;;4420541;32;20178;-88
2022/08/17 02:54:25;;;;;;;9.73;3.85;;;;;;;;;;4419195;32;20654;-87
2022/08/17 02:56:51;;;;;;;7.03;4.15;;;;;;;;;;4420361;32;20677;-86
2022/08/17 02:59:16;;;;;;;10.68;4.75;;;;;;;;;;4420220;32;20262;-88
2022/08/17 03:01:43;;;;;;;10.23;4.32;;;;;;;;;;4420357;32;20205;-87
2022/08/17 03:04:09;;;;;;;9.50;5.05;;;;;;;;;;4419022;32;20544;-88
2022/08/17 03:06:36;;;;;;;15.30;5.18;;;;;;;;;;4426233;32;20234;-86
2022/08/17 03:09:03;;;;;;;5.70;4.10;;;;;;;;;;4427106;32;20239;-86
2022/08/17 03:11:30;;;;;;;12.02;4.40;;;;;;;;;;4427374;32;20189;-87
2022/08/17 03:13:57;;;;;;;14.73;4.62;;;;;;;;;;4423855;32;20562;-87
2022/08/17 03:16:23;;;;;;;14.05;5.07;;;;;;;;;;4419840;32;20655;-86
2022/08/17 03:18:49;;;;;;;5.62;4.20;;;;;;;;;;4420036;32;20228;-86
2022/08/17 03:21:16;;;;;;;10.32;3.67;;;;;;;;;;4419642;32;20236;-88
2022/08/17 03:23:41;;;;;;;7.37;4.43;;;;;;;;;;4419569;32;20545;-86
2022/08/17 03:26:09;;;;;;;9.48;4.65;;;;;;;;;;4419710;32;20216;-85
2022/08/17 03:28:36;;;;;;;12.60;4.35;;;;;;;;;;4419677;32;20556;-88
2022/08/17 03:31:02;;;;;;;8.65;4.40;;;;;;;;;;4419511;32;20626;-87
2022/08/17 03:33:28;;;;;;;10.15;4.15;;;;;;;;;;4420050;32;20646;-86
2022/08/17 03:35:54;;;;;;;10.48;4.25;;;;;;;;;;4419469;32;20208;-87
2022/08/17 03:38:20;;;;;;;8.80;4.47;;;;;;;;;;4418333;32;20601;-87
2022/08/17 03:40:48;;;;;;;10.60;3.85;;;;;;;;;;4419389;32;20607;-86
2022/08/17 03:43:15;;;;;;;8.95;4.97;;;;;;;;;;4419516;32;20540;-86
2022/08/17 03:56:55;;;;;;;17.92;5.78;;;;;;;;;;4422935;32;20203;-90
2022/08/17 03:59:21;;;;;;;12.60;6.57;;;;;;;;;;4423035;32;20607;-90
2022/08/17 04:01:50;;;;;;;14.48;6.55;;;;;;;;;;4423441;32;20534;-90
2022/08/17 04:04:16;;;;;;;12.55;5.75;;;;;;;;;;4422864;32;20597;-92
2022/08/17 04:06:42;;;;;;;9.45;5.75;;;;;;;;;;4422900;32;20201;-91
2022/08/17 04:09:09;;;;;;;19.00;5.85;;;;;;;;;;4421457;32;20504;-90
2022/08/17 04:11:35;;;;;;;17.45;5.60;;;;;;;;;;4422764;32;20551;-89
2022/08/17 04:14:02;;;;;;;10.00;5.47;;;;;;;;;;4421226;32;20566;-89
2022/08/17 04:16:29;;;;;;;8.30;5.75;;;;;;;;;;4422207;32;20613;-88
2022/08/17 04:18:54;;;;;;;8.32;6.22;;;;;;;;;;4422257;32;20563;-87
2022/08/17 04:21:21;;;;;;;14.05;5.57;;;;;;;;;;4422133;32;20367;-87
2022/08/17 04:23:47;;;;;;;9.25;5.70;;;;;;;;;;4422372;32;20624;-88
2022/08/17 04:26:13;;;;;;;14.73;5.82;;;;;;;;;;4423690;32;20714;-95
2022/08/17 04:28:40;;;;;;;13.82;5.53;;;;;;;;;;4421148;32;20272;-88
2022/08/17 04:31:11;;;;;;;19.42;6.40;;;;;;;;;;4422233;32;20637;-91
2022/08/17 04:33:38;;;;;;;9.80;5.80;;;;;;;;;;4422617;32;20534;-91
2022/08/17 04:36:06;;;;;;;11.43;5.90;;;;;;;;;;4422531;32;20632;-89
2022/08/17 04:38:35;;;;;;;18.15;6.65;;;;;;;;;;4423783;32;20582;-90
2022/08/17 04:43:47;;;;;;;19.20;5.95;;;;;;;;;;4422296;32;20546;-91
2022/08/17 04:46:18;;;;;;;15.93;6.18;;;;;;;;;;4422017;32;20565;-88
2022/08/17 04:48:47;;;;;;;14.55;6.50;;;;;;;;;;4420679;32;20508;-90
2022/08/17 04:51:17;;;;;;;15.05;6.00;;;;;;;;;;4421836;32;20639;-89
2022/08/17 04:53:47;;;;;;;16.23;6.25;;;;;;;;;;4422075;32;20559;-89
2022/08/17 04:56:15;;;;;;;11.32;5.95;;;;;;;;;;4420725;32;20666;-92
2022/08/17 04:58:48;;;;;;;15.95;5.85;;;;;;;;;;4421767;32;20672;-90
2022/08/17 05:01:15;;;;;;;10.80;5.97;;;;;;;;;;4420452;32;20654;-84
2022/08/17 05:03:43;;;;;;;12.73;5.43;;;;;;;;;;4420300;32;20523;-84
2022/08/17 05:06:09;;;;;;;8.95;4.80;;;;;;;;;;4421250;32;20699;-83
2022/08/17 05:08:35;;;;;;;8.23;4.78;;;;;;;;;;4421715;32;20575;-83
2022/08/17 05:11:01;;;;;;;19.83;5.55;;;;;;;;;;4421250;32;20413;-84
2022/08/17 05:13:28;;;;;;;12.13;4.97;;;;;;;;;;4420066;32;20209;-83
2022/08/17 05:15:57;;;;;;;11.25;4.65;;;;;;;;;;4419976;32;20520;-83
2022/08/17 05:18:26;;;;;;;9.25;4.87;;;;;;;;;;4421363;32;20487;-84
2022/08/17 05:20:52;;;;;;;14.70;5.00;;;;;;;;;;4419842;32;20508;-84
2022/08/17 05:23:22;;;;;;;16.23;7.05;;;;;;;;;;4421289;32;20580;-83
2022/08/17 05:25:51;;;;;;;9.18;4.95;;;;;;;;;;4420924;32;20541;-83
2022/08/17 05:28:18;;;;;;;13.65;5.78;;;;;;;;;;4421297;32;20491;-83
2022/08/17 05:30:46;;;;;;;19.73;6.47;;;;;;;;;;4420807;32;20573;-84
2022/08/17 05:33:21;;;;;;;17.10;6.07;;;;;;;;;;4420864;32;20571;-82
2022/08/17 05:35:49;;;;;;;9.60;5.78;;;;;;;;;;4420753;32;20693;-82
2022/08/17 05:38:17;;;;;;;23.73;5.40;;;;;;;;;;4420623;32;20550;-82
2022/08/17 05:40:43;;;;;;;14.82;5.68;;;;;;;;;;4420293;32;20589;-81
2022/08/17 05:43:24;;;;;;;11.00;5.57;;;;;;;;;;4419051;32;20530;-81
2022/08/17 05:46:11;;;;;;;21.98;6.82;;;;;;;;;;4420486;32;20553;-82
2022/08/17 05:48:41;;;;;;;15.60;5.97;;;;;;;;;;4420617;32;20528;-82
2022/08/17 05:51:34;;;;;;;25.60;8.80;;;;;;;;;;4420230;32;20653;-82
2022/08/17 05:54:16;;;;;;;25.17;7.07;;;;;;;;;;4395938;32;20726;-83
2022/08/17 05:56:56;;;;;;;12.15;6.43;;;;;;;;;;4420629;32;20657;-82
2022/08/17 05:59:36;;;;;;;19.83;6.85;;;;;;;;;;4420399;32;20511;-83
2022/08/17 06:02:24;;;;;;;10.38;6.93;;;;;;;;;;4419639;32;20491;-83
2022/08/17 06:04:59;;;;;;;13.65;6.43;;;;;;;;;;4420397;32;20577;-82
2022/08/17 06:07:35;;;;;;;13.35;5.87;;;;;;;;;;4420565;32;20463;-81
2022/08/17 06:10:16;;;;;;;13.27;5.62;;;;;;;;;;4420313;32;20716;-81
2022/08/17 06:13:16;;;;;;;8.35;6.55;;;;;;;;;;4420401;32;20589;-82
2022/08/17 06:16:03;;;;;;;16.58;6.10;;;;;;;;;;4419761;32;20706;-82
2022/08/17 06:18:43;;;;;;;17.37;7.18;;;;;;;;;;4420651;32;20600;-82
2022/08/17 06:21:15;;;;;;;11.35;5.97;;;;;;;;;;4420098;32;20625;-81
2022/08/17 06:23:58;;;;;;;11.50;6.30;;;;;;;;;;4420238;32;20649;-85
2022/08/17 06:26:35;;;;;;;14.65;6.55;;;;;;;;;;4420223;32;20506;-82
2022/08/17 06:29:24;;;;;;;16.83;5.85;;;;;;;;;;4420113;32;20614;-82
2022/08/17 06:31:50;;;;;;;18.65;6.70;;;;;;;;;;4418686;32;20564;-80
2022/08/17 06:34:16;;;;;;;13.95;6.12;;;;;;;;;;4419864;32;20815;-80
2022/08/17 06:37:09;;;;;;;20.60;5.35;;;;;;;;;;4419880;32;20209;-82
2022/08/17 06:39:54;;;;;;;6.97;5.12;;;;;;;;;;4420051;32;20689;-80
2022/08/17 06:42:30;;;;;;;10.57;4.97;;;;;;;;;;4420006;32;20653;-81
2022/08/17 06:45:21;;;;;;;8.85;6.25;;;;;;;;;;4418495;32;20606;-81
2022/08/17 06:48:23;;;;;;;10.80;5.85;;;;;;;;;;4419792;32;20559;-82
2022/08/17 06:51:03;;;;;;;15.90;5.78;;;;;;;;;;4419604;32;20590;-82
2022/08/17 06:53:58;;;;;;;10.43;5.95;;;;;;;;;;4419990;32;20576;-82
2022/08/17 06:56:34;;;;;;;17.10;7.22;;;;;;;;;;4419843;32;20602;-81
2022/08/17 06:59:00;;;;;;;13.20;5.55;;;;;;;;;;4419811;32;20503;-81
2022/08/17 07:01:35;;;;;;;11.45;5.78;;;;;;;;;;4419837;32;20550;-82
2022/08/17 07:24:29;;;;;;;19.35;5.43;;;;;;;;;;4419560;32;20200;-84
2022/08/17 07:27:26;;;;;;;13.05;4.57;;;;;;;;;;4419071;32;20531;-82
2022/08/17 07:29:58;;;;;;;16.80;5.25;;;;;;;;;;4418728;32;20573;-82
2022/08/17 07:32:33;;;;;;;11.65;4.15;;;;;;;;;;4418040;32;20530;-82
2022/08/17 07:38:23;;;;;;;20.48;4.68;;;;;;;;;;4419289;32;20286;-81
2022/08/17 07:41:02;;;;;;;7.53;4.28;;;;;;;;;;4419594;32;20621;-82
2022/08/17 07:43:39;;;;;;;9.77;5.00;;;;;;;;;;4419287;32;20546;-81
2022/08/17 07:49:08;;;;;;;15.93;4.47;;;;;;;;;;4419385;32;20275;-81
2022/08/17 07:51:58;;;;;;;13.27;4.70;;;;;;;;;;4419338;32;20541;-81
2022/08/17 07:54:36;;;;;;;8.77;4.32;;;;;;;;;;4418836;32;20542;-82
2022/08/17 07:57:11;;;;;;;14.38;5.45;;;;;;;;;;4418971;32;20590;-83
2022/08/17 07:59:40;;;;;;;11.25;4.95;;;;;;;;;;4418990;32;20691;-82
2022/08/17 08:02:33;;;;;;;17.73;4.65;;;;;;;;;;4417858;32;20569;-81
2022/08/17 08:05:14;;;;;;;14.05;4.57;;;;;;;;;;4418947;32;20598;-81
2022/08/17 08:07:53;;;;;;;10.18;4.60;;;;;;;;;;4419274;32;20825;-83
2022/08/17 08:10:36;;;;;;;11.00;4.00;;;;;;;;;;4419059;32;20663;-81
2022/08/17 08:13:13;;;;;;;19.75;4.93;;;;;;;;;;4419077;32;20586;-83
2022/08/17 08:15:52;;;;;;;8.23;4.75;;;;;;;;;;4418884;32;20701;-81
2022/08/17 08:18:25;;;;;;;9.00;4.68;;;;;;;;;;4417958;32;20607;-82
2022/08/17 08:20:58;;;;;;;9.27;3.80;;;;;;;;;;4418931;32;20815;-82
2022/08/17 08:23:36;;;;;;;13.85;4.62;;;;;;;;;;4419122;32;20543;-81
2022/08/17 08:26:07;;;;;;;16.58;4.78;;;;;;;;;;4418590;32;20664;-83
2022/08/17 08:28:39;;;;;;;6.68;4.25;;;;;;;;;;4418621;32;20571;-83
2022/08/17 08:31:43;;;;;;;10.18;5.10;;;;;;;;;;4418837;32;20653;-83
2022/08/17 08:34:23;;;;;;;10.48;4.22;;;;;;;;;;4416610;32;20559;-81
2022/08/17 08:36:59;;;;;;;8.25;3.92;;;;;;;;;;4417812;32;20738;-83
2022/08/17 08:40:14;;;;;;;11.20;4.28;;;;;;;;;;4420953;32;20557;-83
2022/08/17 08:43:05;;;;;;;16.02;4.35;;;;;;;;;;4413072;32;20621;-81
